Time;durP1;ratioP1;P1;durP2;ratioP2;P2;SDS_P1;SDS_P2;PMS_P1;PMS_P2;Temp;Humidity;BMP_temperature;BMP_pressure;BME280_temperature;BME280_humidity;BME280_pressure;Samples;Min_cycle;Max_cycle;Signal;HPM_P1;HPM_P2
2023/09/24 00:02:11;;;;;;;5.95;2.58;;;10.80;99.90;;;;;;5154771;27;20051;-22
2023/09/24 00:04:37;;;;;;;8.50;2.38;;;10.80;99.90;;;;;;5155238;27;20035;-23
2023/09/24 00:07:05;;;;;;;5.13;2.28;;;10.60;99.90;;;;;;5156061;27;20042;-22
2023/09/24 00:09:31;;;;;;;9.85;4.10;;;10.70;99.90;;;;;;5162277;27;20049;-22
2023/09/24 00:11:57;;;;;;;6.78;3.00;;;10.50;99.90;;;;;;5161395;27;20045;-22
2023/09/24 00:14:26;;;;;;;8.13;2.95;;;10.40;99.90;;;;;;5162181;27;20047;-22
2023/09/24 00:16:52;;;;;;;7.13;2.85;;;10.30;99.90;;;;;;5161951;27;20488;-22
2023/09/24 00:19:18;;;;;;;8.48;3.03;;;10.20;99.90;;;;;;5160875;27;20487;-22
2023/09/24 00:21:43;;;;;;;10.38;3.08;;;10.20;99.90;;;;;;5162663;27;20088;-22
2023/09/24 00:24:10;;;;;;;6.93;2.75;;;10.00;99.90;;;;;;5162964;27;20046;-22
2023/09/24 00:26:36;;;;;;;6.40;2.85;;;9.90;99.90;;;;;;5162731;27;20086;-22
2023/09/24 00:29:03;;;;;;;6.55;2.92;;;9.80;99.90;;;;;;5162655;27;20043;-22
2023/09/24 00:31:30;;;;;;;6.60;2.90;;;9.70;99.90;;;;;;5162915;27;20038;-22
2023/09/24 00:33:57;;;;;;;6.75;2.17;;;9.60;99.90;;;;;;5162066;27;20046;-22
2023/09/24 00:36:22;;;;;;;6.95;2.75;;;9.50;99.90;;;;;;5162027;27;20400;-22
2023/09/24 00:38:49;;;;;;;8.52;3.13;;;9.40;99.90;;;;;;5162571;27;20053;-21
2023/09/24 00:41:15;;;;;;;8.35;2.75;;;9.40;99.90;;;;;;5161907;27;20038;-22
2023/09/24 00:43:43;;;;;;;5.55;2.92;;;9.40;99.90;;;;;;5161980;27;20053;-22
2023/09/24 00:46:09;;;;;;;12.30;4.43;;;9.40;99.90;;;;;;5161937;27;20508;-22
2023/09/24 00:48:37;;;;;;;11.02;3.22;;;9.50;99.90;;;;;;5161904;27;20056;-22
2023/09/24 00:51:14;;;;;;;10.27;3.35;;;9.40;99.90;;;;;;5161376;27;20483;-22
2023/09/24 00:53:40;;;;;;;7.82;3.10;;;9.30;99.90;;;;;;5161256;27;20069;-22
2023/09/24 00:56:06;;;;;;;9.45;3.22;;;9.40;99.90;;;;;;5161815;27;20050;-22
2023/09/24 00:58:34;;;;;;;7.65;3.17;;;9.40;99.90;;;;;;5161907;27;20051;-22
2023/09/24 01:01:00;;;;;;;8.07;3.28;;;9.20;99.90;;;;;;5161724;27;20049;-22
2023/09/24 01:03:27;;;;;;;8.20;3.03;;;9.30;99.90;;;;;;5161752;27;20039;-22
2023/09/24 01:05:54;;;;;;;9.38;3.63;;;9.30;99.90;;;;;;5160578;27;20046;-22
2023/09/24 01:08:25;;;;;;;12.50;3.30;;;9.30;99.90;;;;;;5162307;27;20043;-22
2023/09/24 01:10:51;;;;;;;8.50;3.95;;;9.30;99.90;;;;;;5161719;27;20480;-22
2023/09/24 01:13:23;;;;;;;12.05;4.28;;;9.20;99.90;;;;;;5161718;27;20099;-22
2023/09/24 01:15:51;;;;;;;14.02;4.95;;;9.20;99.90;;;;;;5162041;27;20042;-22
2023/09/24 01:18:18;;;;;;;10.27;3.92;;;9.30;99.90;;;;;;5142706;27;20372;-22
2023/09/24 01:20:44;;;;;;;7.97;4.28;;;9.10;99.90;;;;;;5157836;27;20508;-22
2023/09/24 01:23:14;;;;;;;11.23;4.18;;;9.20;99.90;;;;;;5157362;27;20039;-22
2023/09/24 01:25:42;;;;;;;11.63;5.15;;;9.30;99.90;;;;;;5158304;27;20050;-22
2023/09/24 01:28:08;;;;;;;10.32;5.55;;;9.20;99.90;;;;;;5158204;27;20051;-22
2023/09/24 01:30:34;;;;;;;10.90;5.53;;;9.20;99.90;;;;;;5158168;27;20046;-22
2023/09/24 01:33:01;;;;;;;17.27;6.00;;;9.30;99.90;;;;;;5158148;27;20042;-22
2023/09/24 01:35:28;;;;;;;13.68;6.68;;;9.40;99.90;;;;;;5158065;27;20408;-22
2023/09/24 01:38:00;;;;;;;10.32;5.70;;;9.30;99.90;;;;;;5158599;27;20043;-22
2023/09/24 01:40:32;;;;;;;10.65;6.20;;;9.40;99.90;;;;;;5158077;27;20045;-22
2023/09/24 01:42:59;;;;;;;12.98;6.05;;;9.40;99.90;;;;;;5157958;27;20047;-22
2023/09/24 01:45:28;;;;;;;14.35;6.32;;;9.50;99.90;;;;;;5157946;27;20082;-22
2023/09/24 01:47:55;;;;;;;18.63;7.63;;;9.30;99.90;;;;;;5157198;27;20500;-22
2023/09/24 01:50:27;;;;;;;11.55;6.22;;;9.40;99.90;;;;;;5158114;27;20172;-22
2023/09/24 01:52:57;;;;;;;15.20;7.00;;;9.40;99.90;;;;;;5158290;27;20043;-22
2023/09/24 01:55:28;;;;;;;14.85;6.55;;;9.40;99.90;;;;;;5158357;27;20054;-22
2023/09/24 01:57:55;;;;;;;17.75;7.05;;;9.30;99.90;;;;;;5158299;27;20050;-22
2023/09/24 02:00:25;;;;;;;16.90;7.85;;;9.30;99.90;;;;;;5158159;27;20046;-22
2023/09/24 02:02:52;;;;;;;14.25;6.30;;;9.30;99.90;;;;;;5157516;27;20113;-22
2023/09/24 02:05:19;;;;;;;20.42;7.05;;;9.30;99.90;;;;;;5157549;27;20046;-22
2023/09/24 02:07:49;;;;;;;14.90;7.07;;;9.20;99.90;;;;;;5157356;27;20046;-22
2023/09/24 02:10:18;;;;;;;13.27;6.75;;;9.30;99.90;;;;;;5156203;27;20137;-22
2023/09/24 02:12:47;;;;;;;14.52;7.50;;;9.50;99.90;;;;;;5157345;27;20049;-22
2023/09/24 02:15:20;;;;;;;16.10;6.95;;;9.50;99.90;;;;;;5157919;27;20099;-22
2023/09/24 02:17:48;;;;;;;17.90;7.50;;;9.20;99.90;;;;;;5157342;27;20050;-22
2023/09/24 02:20:32;;;;;;;16.35;7.20;;;9.50;99.90;;;;;;5157311;27;20066;-22
2023/09/24 02:23:00;;;;;;;17.60;7.18;;;9.40;99.90;;;;;;5157233;27;20492;-22
2023/09/24 02:25:28;;;;;;;16.33;6.93;;;9.20;99.90;;;;;;5157115;27;20472;-22
2023/09/24 02:27:55;;;;;;;13.55;6.70;;;9.30;99.90;;;;;;5156087;27;20400;-22
2023/09/24 02:30:22;;;;;;;19.27;7.90;;;9.20;99.90;;;;;;5156721;27;20122;-22
2023/09/24 02:32:48;;;;;;;14.65;7.13;;;9.30;99.90;;;;;;5156035;27;20042;-22
2023/09/24 02:35:15;;;;;;;24.83;7.35;;;9.10;99.90;;;;;;5156919;27;20043;-22
2023/09/24 02:37:50;;;;;;;72.18;8.65;;;9.30;99.90;;;;;;5156929;27;20078;-22
2023/09/24 02:40:23;;;;;;;42.65;6.40;;;9.10;99.90;;;;;;5157513;27;20049;-22
2023/09/24 02:42:54;;;;;;;54.90;7.40;;;9.00;99.90;;;;;;5155818;27;20069;-22
2023/09/24 02:45:20;;;;;;;32.97;6.85;;;9.20;99.90;;;;;;5155755;27;20511;-22
2023/09/24 02:47:50;;;;;;;18.00;6.85;;;9.10;99.90;;;;;;5157262;27;20057;-22
2023/09/24 02:50:22;;;;;;;14.50;6.10;;;8.90;99.90;;;;;;5156621;27;20038;-22
2023/09/24 02:52:49;;;;;;;17.23;6.60;;;8.90;99.90;;;;;;5156484;27;20517;-22
2023/09/24 02:55:15;;;;;;;15.85;5.93;;;9.20;99.90;;;;;;5156528;27;20671;-22
2023/09/24 02:57:46;;;;;;;17.17;7.35;;;9.00;99.90;;;;;;5155330;27;20054;-22
2023/09/24 03:00:19;;;;;;;14.93;6.10;;;9.20;99.90;;;;;;5155292;27;20492;-22
2023/09/24 03:02:45;;;;;;;17.83;6.07;;;9.20;99.90;;;;;;5156054;27;20507;-22
2023/09/24 03:05:12;;;;;;;16.05;6.80;;;9.10;99.90;;;;;;5156860;27;20047;-22
2023/09/24 03:07:44;;;;;;;13.25;5.93;;;9.40;99.90;;;;;;5155074;27;20046;-22
2023/09/24 03:10:10;;;;;;;14.85;5.75;;;9.40;99.90;;;;;;5156494;27;20039;-22
2023/09/24 03:12:37;;;;;;;11.70;6.03;;;9.30;99.90;;;;;;5156179;27;20043;-22
2023/09/24 03:15:03;;;;;;;12.13;7.05;;;9.70;99.90;;;;;;5156052;27;20046;-22
2023/09/24 03:17:28;;;;;;;14.95;6.85;;;9.50;99.90;;;;;;5156056;27;20039;-22
2023/09/24 03:19:54;;;;;;;17.50;7.07;;;9.60;99.90;;;;;;5156804;27;20057;-22
2023/09/24 03:22:21;;;;;;;13.32;6.80;;;10.00;99.90;;;;;;5156225;27;20121;-22
2023/09/24 03:24:50;;;;;;;12.18;6.65;;;10.10;99.90;;;;;;5156554;27;20043;-22
2023/09/24 03:27:16;;;;;;;16.92;8.07;;;10.10;99.90;;;;;;5155010;27;20046;-22
2023/09/24 03:29:45;;;;;;;16.50;7.75;;;9.80;99.90;;;;;;5155877;27;20047;-22
2023/09/24 03:32:11;;;;;;;13.25;7.22;;;9.80;99.90;;;;;;5156118;27;20046;-22
2023/09/24 03:34:38;;;;;;;14.98;8.05;;;10.00;99.90;;;;;;5155780;27;20503;-22
2023/09/24 03:37:09;;;;;;;13.93;7.13;;;9.90;99.90;;;;;;5155785;27;20043;-23
2023/09/24 03:39:35;;;;;;;15.55;7.43;;;10.30;99.90;;;;;;5155849;27;20130;-23
2023/09/24 03:42:01;;;;;;;15.93;7.80;;;10.10;99.90;;;;;;5154607;27;20496;-22
2023/09/24 03:44:26;;;;;;;18.80;7.93;;;10.40;99.90;;;;;;5156254;27;20039;-23
2023/09/24 03:46:52;;;;;;;15.45;8.40;;;10.50;99.90;;;;;;5155610;27;20070;-22
2023/09/24 03:49:18;;;;;;;16.48;8.45;;;10.60;99.90;;;;;;5156121;27;20045;-22
2023/09/24 03:51:43;;;;;;;16.02;8.90;;;10.60;99.90;;;;;;5156016;27;20069;-22
2023/09/24 03:54:09;;;;;;;16.88;7.97;;;10.50;99.90;;;;;;5155527;27;20101;-22
2023/09/24 03:56:35;;;;;;;13.13;8.20;;;10.70;99.90;;;;;;5155459;27;20046;-23
2023/09/24 03:59:00;;;;;;;14.77;7.28;;;10.70;99.90;;;;;;5154354;27;20137;-23
2023/09/24 04:01:26;;;;;;;16.33;7.88;;;10.60;99.90;;;;;;5155383;27;20035;-22
2023/09/24 04:03:52;;;;;;;14.25;8.43;;;10.50;99.90;;;;;;5156219;27;20050;-23
2023/09/24 04:06:18;;;;;;;15.60;8.20;;;10.20;99.90;;;;;;5154405;27;20038;-22
2023/09/24 04:08:43;;;;;;;16.70;8.95;;;10.10;99.90;;;;;;5155361;27;20133;-22
2023/09/24 04:11:12;;;;;;;13.95;7.28;;;10.20;99.90;;;;;;5155900;27;20042;-22
2023/09/24 04:13:38;;;;;;;12.63;6.53;;;10.20;99.90;;;;;;5155359;27;20122;-22
2023/09/24 04:16:14;;;;;;;18.38;8.10;;;10.20;99.90;;;;;;5154132;27;20176;-22
2023/09/24 04:18:43;;;;;;;16.17;7.80;;;10.10;99.90;;;;;;5155097;27;20559;-23
2023/09/24 04:21:19;;;;;;;16.88;7.82;;;10.20;99.90;;;;;;5155176;27;20039;-22
2023/09/24 04:23:46;;;;;;;14.18;8.20;;;9.80;99.90;;;;;;5155272;27;20129;-22
2023/09/24 04:26:24;;;;;;;15.98;8.60;;;10.20;99.90;;;;;;5155250;27;20051;-22
2023/09/24 04:28:51;;;;;;;15.95;9.20;;;9.80;99.90;;;;;;5154473;27;20043;-22
2023/09/24 04:31:17;;;;;;;15.15;8.13;;;9.90;99.90;;;;;;5155161;27;20051;-22
2023/09/24 04:33:44;;;;;;;20.23;10.68;;;9.60;99.90;;;;;;5153949;27;20125;-22
2023/09/24 04:36:10;;;;;;;14.43;8.50;;;9.80;99.90;;;;;;5155115;27;20072;-22
2023/09/24 04:38:36;;;;;;;18.98;9.10;;;9.80;99.90;;;;;;5153879;27;20089;-22
2023/09/24 04:41:06;;;;;;;20.15;9.45;;;9.70;99.90;;;;;;5155010;27;20050;-22
2023/09/24 04:43:33;;;;;;;19.95;9.77;;;9.70;99.90;;;;;;5136812;27;20086;-22
2023/09/24 04:46:07;;;;;;;16.67;9.20;;;9.60;99.90;;;;;;5154055;27;20098;-22
2023/09/24 04:48:33;;;;;;;18.77;9.80;;;9.30;99.90;;;;;;5154885;27;20050;-22
2023/09/24 04:51:00;;;;;;;14.30;9.35;;;9.70;99.90;;;;;;5155549;27;20038;-22
2023/09/24 04:53:25;;;;;;;16.38;8.88;;;9.60;99.90;;;;;;5154698;27;20043;-22
2023/09/24 04:55:51;;;;;;;14.70;9.00;;;9.50;99.90;;;;;;5158923;27;20137;-23
2023/09/24 04:58:17;;;;;;;18.33;8.90;;;9.50;99.90;;;;;;5158894;27;20388;-22
2023/09/24 05:00:42;;;;;;;18.58;8.88;;;9.50;99.90;;;;;;5158696;27;20070;-23
2023/09/24 05:03:08;;;;;;;16.80;8.90;;;9.20;99.90;;;;;;5159259;27;20072;-22
2023/09/24 05:05:34;;;;;;;21.08;8.77;;;9.30;99.90;;;;;;5158899;27;20133;-22
2023/09/24 05:08:03;;;;;;;15.90;8.93;;;9.60;99.90;;;;;;5158673;27;20103;-23
2023/09/24 05:10:28;;;;;;;18.08;9.43;;;9.70;99.90;;;;;;5158629;27;20046;-22
2023/09/24 05:12:54;;;;;;;18.30;10.13;;;9.50;99.90;;;;;;5158206;27;20046;-23
2023/09/24 05:15:20;;;;;;;20.85;10.00;;;9.70;99.90;;;;;;5158559;27;20054;-22
2023/09/24 05:17:46;;;;;;;20.92;9.57;;;9.90;99.90;;;;;;5158438;27;20045;-22
2023/09/24 05:20:15;;;;;;;17.33;9.32;;;9.70;99.90;;;;;;5156594;27;20055;-22
2023/09/24 05:22:41;;;;;;;18.52;10.32;;;9.90;99.90;;;;;;5158729;27;20058;-22
2023/09/24 05:25:08;;;;;;;19.88;10.27;;;9.90;99.90;;;;;;5158238;27;20505;-22
2023/09/24 05:27:34;;;;;;;15.15;9.40;;;9.80;99.90;;;;;;5157552;27;20042;-22
2023/09/24 05:30:00;;;;;;;19.92;9.75;;;9.60;99.90;;;;;;5157418;27;20054;-22
2023/09/24 05:32:26;;;;;;;19.20;9.60;;;9.70;99.90;;;;;;5158961;27;20062;-22
2023/09/24 05:34:52;;;;;;;15.90;9.57;;;9.60;99.90;;;;;;5157571;27;20465;-22
2023/09/24 05:37:18;;;;;;;21.73;10.15;;;9.60;99.90;;;;;;5158611;27;20129;-22
2023/09/24 05:39:44;;;;;;;16.90;8.65;;;9.80;99.90;;;;;;5157501;27;20496;-22
2023/09/24 05:42:10;;;;;;;17.85;9.20;;;9.60;99.90;;;;;;5157819;27;20045;-22
2023/09/24 05:44:35;;;;;;;15.63;10.13;;;9.60;99.90;;;;;;5157506;27;20051;-22
2023/09/24 05:47:01;;;;;;;18.05;9.38;;;9.60;99.90;;;;;;5157721;27;20042;-22
2023/09/24 05:49:27;;;;;;;15.98;8.73;;;9.60;99.90;;;;;;5156602;27;20042;-22
2023/09/24 05:51:53;;;;;;;16.98;9.35;;;9.50;99.90;;;;;;5157856;27;20128;-22
2023/09/24 05:54:18;;;;;;;18.17;10.48;;;9.50;99.90;;;;;;5157949;27;20410;-22
2023/09/24 05:56:44;;;;;;;20.10;9.75;;;9.60;99.90;;;;;;5157522;27;20115;-22
2023/09/24 05:59:09;;;;;;;18.23;8.45;;;9.50;99.90;;;;;;5158391;27;20046;-22
2023/09/24 06:01:35;;;;;;;14.68;8.52;;;9.60;99.90;;;;;;5157115;27;20038;-22
2023/09/24 06:04:01;;;;;;;14.55;8.63;;;9.50;99.90;;;;;;5157437;27;20047;-22
2023/09/24 06:06:27;;;;;;;18.67;9.80;;;9.50;99.90;;;;;;5157336;27;20081;-22
2023/09/24 06:08:55;;;;;;;15.88;8.77;;;9.70;99.90;;;;;;5157364;27;20043;-22
2023/09/24 06:11:21;;;;;;;19.67;9.65;;;9.50;99.90;;;;;;5157273;27;20133;-22
2023/09/24 06:13:47;;;;;;;26.60;9.15;;;9.60;99.90;;;;;;5157247;27;20082;-22
2023/09/24 06:16:12;;;;;;;15.88;8.27;;;9.70;99.90;;;;;;5157753;27;20147;-22
2023/09/24 06:18:38;;;;;;;17.05;8.77;;;9.70;99.90;;;;;;5157265;27;20059;-22
2023/09/24 06:21:04;;;;;;;15.70;9.13;;;9.90;99.90;;;;;;5157071;27;20047;-22
2023/09/24 06:23:30;;;;;;;16.20;8.82;;;9.80;99.90;;;;;;5157910;27;20368;-22
2023/09/24 06:26:00;;;;;;;13.25;7.72;;;9.80;99.90;;;;;;5156056;27;20042;-22
2023/09/24 06:28:26;;;;;;;15.80;8.30;;;9.90;99.90;;;;;;5156274;27;20053;-22
2023/09/24 06:31:03;;;;;;;13.13;8.05;;;10.00;99.90;;;;;;5156942;27;20184;-22
2023/09/24 06:33:29;;;;;;;19.88;8.45;;;10.10;99.90;;;;;;5157732;27;20039;-22
2023/09/24 06:35:55;;;;;;;14.05;8.48;;;10.30;99.90;;;;;;5156211;27;20053;-22
2023/09/24 06:38:21;;;;;;;12.43;8.23;;;10.20;99.90;;;;;;5155560;27;20129;-22
2023/09/24 06:41:04;;;;;;;14.65;7.65;;;10.40;99.90;;;;;;5155373;27;20469;-22
2023/09/24 06:43:31;;;;;;;13.05;7.10;;;10.50;99.90;;;;;;5156294;27;20467;-22
2023/09/24 06:45:57;;;;;;;15.85;7.35;;;10.50;99.90;;;;;;5156691;27;20050;-22
2023/09/24 06:48:24;;;;;;;13.27;7.70;;;10.60;99.90;;;;;;5156302;27;20357;-22
2023/09/24 06:50:51;;;;;;;10.45;7.13;;;10.70;99.90;;;;;;5156526;27;20128;-22
2023/09/24 06:53:17;;;;;;;11.43;6.60;;;10.70;99.90;;;;;;5157002;27;20384;-22
2023/09/24 06:55:43;;;;;;;13.48;7.00;;;10.90;99.90;;;;;;5156457;27;20042;-22
2023/09/24 06:58:09;;;;;;;12.77;6.45;;;10.80;99.90;;;;;;5155201;27;20099;-22
2023/09/24 07:00:35;;;;;;;11.07;6.57;;;10.90;99.90;;;;;;5156824;27;20074;-22
2023/09/24 07:03:00;;;;;;;14.27;6.97;;;10.90;99.90;;;;;;5156379;27;20100;-22
2023/09/24 07:05:26;;;;;;;14.07;6.43;;;11.00;99.90;;;;;;5156175;27;20093;-22
2023/09/24 07:07:52;;;;;;;8.95;6.00;;;11.00;99.90;;;;;;5156207;27;20061;-22
2023/09/24 07:10:22;;;;;;;12.48;6.47;;;11.10;99.90;;;;;;5156087;27;20053;-22
2023/09/24 07:12:47;;;;;;;11.43;5.97;;;11.10;99.90;;;;;;5156069;27;20125;-22
2023/09/24 07:15:13;;;;;;;13.25;6.00;;;11.20;99.90;;;;;;5156033;27;20082;-22
2023/09/24 07:17:39;;;;;;;12.40;6.18;;;11.20;99.90;;;;;;5154025;27;20496;-22
2023/09/24 07:20:07;;;;;;;12.60;6.97;;;11.30;99.90;;;;;;5156566;27;20059;-22
2023/09/24 07:22:33;;;;;;;12.73;6.38;;;11.40;99.90;;;;;;5156142;27;20034;-22
2023/09/24 07:24:58;;;;;;;11.07;5.82;;;11.40;99.90;;;;;;5154631;27;20069;-22
2023/09/24 07:27:24;;;;;;;11.80;6.10;;;11.50;99.90;;;;;;5155124;27;20047;-22
2023/09/24 07:29:50;;;;;;;12.85;6.50;;;11.50;99.90;;;;;;5155825;27;20046;-22
2023/09/24 07:32:16;;;;;;;13.43;6.07;;;11.60;99.90;;;;;;5154818;27;20050;-22
2023/09/24 07:34:42;;;;;;;7.78;4.95;;;11.60;99.90;;;;;;5156281;27;20042;-22
2023/09/24 07:37:08;;;;;;;8.85;5.85;;;11.60;99.90;;;;;;5154716;27;20063;-22
2023/09/24 07:39:37;;;;;;;13.27;7.03;;;11.60;99.90;;;;;;5155731;27;20050;-22
2023/09/24 07:42:02;;;;;;;14.50;6.05;;;11.80;99.90;;;;;;5155516;27;20126;-22
2023/09/24 07:44:28;;;;;;;9.55;5.32;;;11.90;99.90;;;;;;5155623;27;20074;-22
2023/09/24 07:46:54;;;;;;;15.43;6.32;;;11.90;99.90;;;;;;5154572;27;20045;-22
2023/09/24 07:49:20;;;;;;;10.68;6.03;;;12.10;99.90;;;;;;5155464;27;20047;-22
2023/09/24 07:51:45;;;;;;;11.35;5.43;;;12.10;99.90;;;;;;5155339;27;20129;-22
2023/09/24 07:54:11;;;;;;;10.18;5.28;;;12.30;99.90;;;;;;5154878;27;20092;-22
2023/09/24 07:56:42;;;;;;;10.80;4.53;;;12.40;99.90;;;;;;5155462;27;20043;-22
2023/09/24 07:59:11;;;;;;;9.00;4.80;;;12.50;99.90;;;;;;5156053;27;20047;-22
2023/09/24 08:01:37;;;;;;;12.48;5.57;;;12.50;99.90;;;;;;5155319;27;20345;-23
2023/09/24 08:04:03;;;;;;;8.65;4.25;;;12.60;99.90;;;;;;5154429;27;20046;-22
2023/09/24 08:06:29;;;;;;;12.15;5.35;;;12.70;99.90;;;;;;5137758;27;20039;-22
2023/09/24 08:08:56;;;;;;;11.60;4.60;;;12.80;99.90;;;;;;5155197;27;20496;-22
2023/09/24 08:11:22;;;;;;;7.55;4.07;;;12.90;99.90;;;;;;5156062;27;20039;-22
2023/09/24 08:13:48;;;;;;;10.18;4.40;;;13.00;99.90;;;;;;5153639;27;20510;-22
2023/09/24 08:16:14;;;;;;;9.02;4.28;;;13.20;99.90;;;;;;5155123;27;20487;-22
2023/09/24 08:18:40;;;;;;;11.00;5.15;;;13.20;99.90;;;;;;5154117;27;20051;-22
2023/09/24 08:21:06;;;;;;;9.13;4.95;;;13.20;99.90;;;;;;5155054;27;20227;-22
2023/09/24 08:23:33;;;;;;;6.32;3.65;;;13.30;99.90;;;;;;5155092;27;20049;-22
2023/09/24 08:26:01;;;;;;;7.75;3.88;;;13.30;99.90;;;;;;5155594;27;20125;-22
2023/09/24 08:28:27;;;;;;;11.75;4.90;;;13.30;99.90;;;;;;5156189;27;20045;-22
2023/09/24 08:30:53;;;;;;;8.68;4.05;;;13.40;99.90;;;;;;5160050;27;20129;-22
2023/09/24 08:33:19;;;;;;;12.13;4.70;;;13.50;99.90;;;;;;5159149;27;20395;-22
2023/09/24 08:35:45;;;;;;;11.45;4.78;;;13.50;99.90;;;;;;5159209;27;20476;-22
2023/09/24 08:38:10;;;;;;;7.53;3.17;;;13.60;99.90;;;;;;5159185;27;20065;-22
2023/09/24 08:40:39;;;;;;;9.07;4.00;;;13.70;99.90;;;;;;5157885;27;20049;-22
2023/09/24 08:43:09;;;;;;;7.35;4.00;;;13.70;99.90;;;;;;5158932;27;20121;-22
2023/09/24 08:45:35;;;;;;;7.93;4.20;;;13.80;99.90;;;;;;5159072;27;20046;-22
2023/09/24 08:48:07;;;;;;;7.35;3.55;;;14.00;99.90;;;;;;5158942;27;20051;-22
2023/09/24 08:50:38;;;;;;;10.27;4.20;;;14.00;99.90;;;;;;5158904;27;20043;-22
2023/09/24 08:53:08;;;;;;;8.38;3.92;;;14.10;99.90;;;;;;5158807;27;20485;-22
2023/09/24 08:55:34;;;;;;;12.43;3.83;;;14.10;99.90;;;;;;5159471;27;20050;-22
2023/09/24 08:58:00;;;;;;;6.82;3.60;;;14.10;99.90;;;;;;5159014;27;20043;-22
2023/09/24 09:00:26;;;;;;;9.35;3.75;;;14.20;99.90;;;;;;5157508;27;20035;-22
2023/09/24 09:02:53;;;;;;;6.68;3.47;;;14.30;99.90;;;;;;5157408;27;20444;-22
2023/09/24 09:05:25;;;;;;;7.18;3.40;;;14.50;99.90;;;;;;5158699;27;20135;-22
2023/09/24 09:08:04;;;;;;;9.05;3.08;;;14.90;99.90;;;;;;5157625;27;20042;-23
2023/09/24 09:10:32;;;;;;;6.97;3.60;;;;;;;;;;5158622;27;20043;-23
2023/09/24 09:13:11;;;;;;;6.80;2.72;;;16.60;99.90;;;;;;5158534;27;20043;-22
2023/09/24 09:15:38;;;;;;;9.23;3.47;;;17.00;1.00;;;;;;5157567;27;20097;-23
2023/09/24 09:18:05;;;;;;;8.45;2.92;;;17.10;1.00;;;;;;5158480;27;20101;-23
2023/09/24 09:20:41;;;;;;;7.55;2.97;;;17.30;99.90;;;;;;5158914;27;20043;-22
2023/09/24 09:23:12;;;;;;;6.72;2.40;;;17.60;1.00;;;;;;5159157;27;20126;-23
2023/09/24 09:25:52;;;;;;;4.43;2.17;;;17.70;99.90;;;;;;5158429;27;20043;-23
2023/09/24 09:28:38;;;;;;;8.10;2.00;;;18.10;99.90;;;;;;5157023;27;20090;-22
2023/09/24 09:31:06;;;;;;;7.35;2.55;;;;;;;;;;5158093;27;20055;-22
2023/09/24 09:33:41;;;;;;;7.90;2.17;;;18.00;78.50;;;;;;5158086;27;20093;-22
2023/09/24 09:36:24;;;;;;;5.15;2.00;;;18.20;99.90;;;;;;5158165;27;20071;-22
2023/09/24 09:38:51;;;;;;;10.25;2.67;;;17.90;1.00;;;;;;5158008;27;20046;-22
2023/09/24 09:41:20;;;;;;;6.07;2.38;;;18.10;99.90;;;;;;5156728;27;20038;-22
2023/09/24 09:43:47;;;;;;;9.65;2.60;;;18.10;1.00;;;;;;5157936;27;20125;-22
2023/09/24 09:46:18;;;;;;;9.50;2.92;;;18.50;1.00;;;;;;5157908;27;20051;-22
2023/09/24 09:49:02;;;;;;;7.22;2.08;;;18.60;99.90;;;;;;5158525;27;20133;-22
2023/09/24 09:51:38;;;;;;;8.13;1.95;;;18.20;99.90;;;;;;5156571;27;20038;-22
2023/09/24 09:54:07;;;;;;;7.13;2.42;;;18.50;1.00;;;;;;5157163;27;20091;-22
2023/09/24 09:56:35;;;;;;;5.78;2.00;;;18.40;99.90;;;;;;5157728;27;20051;-22
2023/09/24 09:59:02;;;;;;;6.90;1.90;;;18.50;99.90;;;;;;5157713;27;20091;-22
2023/09/24 10:01:28;;;;;;;4.45;1.73;;;18.60;99.90;;;;;;5157635;27;20086;-22
2023/09/24 10:03:55;;;;;;;7.60;2.63;;;18.70;99.90;;;;;;5157232;27;20042;-22
2023/09/24 10:06:22;;;;;;;5.35;2.05;;;18.70;99.90;;;;;;5157566;27;20057;-22
2023/09/24 10:08:49;;;;;;;7.38;2.45;;;19.00;99.90;;;;;;5157473;27;20057;-22
2023/09/24 10:11:33;;;;;;;5.45;2.00;;;19.10;81.00;;;;;;5156217;27;20035;-22
2023/09/24 10:14:01;;;;;;;6.53;2.38;;;18.80;99.90;;;;;;5157704;27;20046;-22
2023/09/24 10:16:35;;;;;;;6.85;2.50;;;19.10;48.10;;;;;;5157301;27;20396;-22
2023/09/24 10:19:11;;;;;;;3.92;1.60;;;19.00;54.20;;;;;;5155824;27;20051;-22
2023/09/24 10:21:44;;;;;;;6.68;1.75;;;19.20;5.70;;;;;;5157143;27;20047;-22
2023/09/24 10:24:12;;;;;;;9.02;2.08;;;19.10;99.90;;;;;;5156511;27;20082;-22
2023/09/24 10:27:03;;;;;;;3.78;1.65;;;18.90;16.60;;;;;;5157098;27;20445;-22
2023/09/24 10:29:59;;;;;;;7.55;2.83;;;19.00;99.90;;;;;;5157011;27;20058;-22
2023/09/24 10:32:26;;;;;;;5.90;1.73;;;19.10;99.90;;;;;;5157014;27;20038;-22
2023/09/24 10:34:52;;;;;;;7.22;1.92;;;19.30;1.00;;;;;;5155673;27;20508;-22
2023/09/24 10:37:19;;;;;;;5.03;1.75;;;19.20;1.00;;;;;;5156907;27;20082;-22
2023/09/24 10:40:03;;;;;;;7.32;1.92;;;18.90;1.00;;;;;;5156768;27;20421;-22
2023/09/24 10:42:34;;;;;;;4.13;1.20;;;18.90;99.90;;;;;;5156746;27;20093;-22
2023/09/24 10:45:06;;;;;;;8.30;1.90;;;19.10;99.90;;;;;;5156790;27;20058;-22
2023/09/24 10:47:52;;;;;;;6.45;1.48;;;19.30;99.90;;;;;;5156736;27;20050;-22
2023/09/24 10:50:19;;;;;;;2.90;1.23;;;19.60;99.90;;;;;;5156128;27;20133;-22
2023/09/24 10:52:53;;;;;;;4.07;1.70;;;19.40;99.90;;;;;;5156310;27;20093;-22
2023/09/24 10:55:43;;;;;;;6.30;1.77;;;19.40;99.90;;;;;;5155746;27;20047;-22
2023/09/24 10:58:11;;;;;;;5.70;1.48;;;19.70;99.90;;;;;;5156619;27;20062;-22
2023/09/24 11:00:37;;;;;;;8.48;1.52;;;19.60;99.90;;;;;;5156468;27;20050;-22
2023/09/24 11:03:05;;;;;;;6.60;1.60;;;19.90;99.90;;;;;;5156413;27;20082;-22
2023/09/24 11:05:40;;;;;;;5.63;1.35;;;19.70;93.00;;;;;;5156071;27;20400;-23
2023/09/24 11:08:07;;;;;;;5.70;1.52;;;19.80;99.90;;;;;;5155977;27;20042;-22
2023/09/24 11:10:33;;;;;;;6.03;1.25;;;19.80;99.90;;;;;;5156352;27;20065;-22
2023/09/24 11:13:01;;;;;;;6.47;1.77;;;20.20;99.90;;;;;;5156202;27;20468;-22
2023/09/24 11:15:32;;;;;;;7.78;2.20;;;20.30;99.90;;;;;;5156479;27;20042;-22
2023/09/24 11:17:59;;;;;;;4.27;1.47;;;20.50;1.00;;;;;;5156521;27;20396;-22
2023/09/24 11:20:28;;;;;;;6.25;1.27;;;19.90;77.80;;;;;;5156522;27;20051;-22
2023/09/24 11:23:08;;;;;;;2.53;1.00;;;20.00;99.90;;;;;;5156004;27;20047;-22
2023/09/24 11:25:35;;;;;;;4.30;1.58;;;20.10;1.00;;;;;;5156636;27;20043;-22
2023/09/24 11:28:03;;;;;;;6.28;1.23;;;20.00;1.00;;;;;;5154675;27;20117;-22
2023/09/24 11:30:45;;;;;;;5.13;1.70;;;19.80;1.00;;;;;;5152537;27;20043;-22
2023/09/24 11:33:22;;;;;;;4.07;1.60;;;19.90;1.00;;;;;;5152875;27;20129;-22
2023/09/24 11:35:53;;;;;;;6.40;1.83;;;20.00;1.00;;;;;;5155394;27;20050;-22
2023/09/24 11:38:40;;;;;;;2.78;1.05;;;20.10;1.00;;;;;;5155496;27;20391;-22
2023/09/24 11:41:06;;;;;;;4.68;1.40;;;20.40;57.60;;;;;;5155712;27;20042;-23
2023/09/24 11:43:32;;;;;;;6.28;1.70;;;20.20;1.00;;;;;;5155732;27;20106;-22
2023/09/24 11:45:59;;;;;;;4.25;1.33;;;20.00;1.00;;;;;;5156136;27;20121;-22
2023/09/24 11:48:29;;;;;;;5.03;1.42;;;19.40;1.00;;;;;;5154639;27;20532;-22
2023/09/24 11:51:01;;;;;;;3.92;1.13;;;19.40;1.00;;;;;;5155626;27;20045;-22
2023/09/24 11:53:27;;;;;;;4.30;1.42;;;19.70;1.00;;;;;;5155596;27;20078;-22
2023/09/24 11:55:58;;;;;;;3.88;1.48;;;19.70;41.10;;;;;;5154366;27;20438;-22
2023/09/24 11:58:26;;;;;;;4.25;1.20;;;19.70;1.00;;;;;;5155930;27;20046;-22
2023/09/24 12:00:53;;;;;;;4.00;1.40;;;20.10;1.00;;;;;;5154187;27;20086;-22
2023/09/24 12:03:20;;;;;;;3.10;1.27;;;19.70;1.00;;;;;;5154116;27;20386;-23
2023/09/24 12:05:47;;;;;;;7.88;1.83;;;19.70;1.00;;;;;;5155515;27;20099;-22
2023/09/24 12:08:13;;;;;;;5.35;1.42;;;20.60;1.00;;;;;;5156262;27;20058;-22
2023/09/24 12:10:40;;;;;;;2.70;1.08;;;20.70;1.00;;;;;;5155625;27;20043;-23
2023/09/24 12:13:06;;;;;;;4.13;1.10;;;20.50;1.00;;;;;;5155345;27;20445;-23
2023/09/24 12:15:33;;;;;;;4.38;1.17;;;20.50;1.00;;;;;;5154979;27;20572;-22
2023/09/24 12:18:01;;;;;;;3.47;1.20;;;20.10;1.00;;;;;;5154395;27;20042;-23
2023/09/24 12:20:27;;;;;;;4.90;1.20;;;20.00;1.00;;;;;;5155170;27;20062;-23
2023/09/24 12:22:54;;;;;;;4.47;1.33;;;20.30;1.00;;;;;;5155177;27;20074;-23
2023/09/24 12:25:20;;;;;;;2.80;0.90;;;20.60;1.00;;;;;;5154988;27;20453;-23
2023/09/24 12:27:45;;;;;;;4.25;1.38;;;20.80;1.00;;;;;;5155262;27;20064;-23
2023/09/24 12:30:12;;;;;;;3.63;0.93;;;20.70;1.00;;;;;;5155227;27;20400;-23
2023/09/24 12:32:39;;;;;;;4.43;1.20;;;21.10;1.00;;;;;;5154229;27;20050;-23
2023/09/24 12:35:07;;;;;;;5.22;1.35;;;20.80;1.00;;;;;;5155150;27;20050;-23
2023/09/24 12:37:34;;;;;;;3.58;0.95;;;20.40;1.00;;;;;;5154135;27;20054;-23
2023/09/24 12:40:00;;;;;;;2.95;1.00;;;20.00;1.00;;;;;;5154719;27;20115;-23
2023/09/24 12:42:30;;;;;;;3.25;0.90;;;20.00;1.00;;;;;;5155809;27;20043;-23
2023/09/24 12:44:59;;;;;;;3.65;1.20;;;20.00;1.00;;;;;;5155069;27;20095;-23
2023/09/24 12:47:28;;;;;;;6.38;1.45;;;20.10;1.00;;;;;;5155897;27;20066;-23
2023/09/24 12:49:55;;;;;;;4.95;1.77;;;19.70;23.80;;;;;;5154970;27;20043;-23
2023/09/24 12:52:23;;;;;;;3.53;1.33;;;19.60;75.10;;;;;;5153784;27;20078;-23
2023/09/24 12:54:49;;;;;;;4.30;1.13;;;20.10;99.90;;;;;;5154987;27;20043;-23